sensor_id;sensor_type;location;lat;lon;timestamp;pressure;altitude;pressure_sealevel;temperature;humidity
57644;BME280;43474;46.510;6.686;2024-02-23T00:00:42;95059.53;;;4.46;100.00
57644;BME280;43474;46.510;6.686;2024-02-23T00:03:28;95101.03;;;4.73;100.00
57644;BME280;43474;46.510;6.686;2024-02-23T00:05:54;95052.16;;;4.43;100.00
57644;BME280;43474;46.510;6.686;2024-02-23T00:08:20;95088.69;;;4.61;100.00
57644;BME280;43474;46.510;6.686;2024-02-23T00:10:45;95081.88;;;4.60;100.00
57644;BME280;43474;46.510;6.686;2024-02-23T00:13:12;95038.47;;;4.41;100.00
57644;BME280;43474;46.510;6.686;2024-02-23T00:15:37;95086.28;;;4.83;100.00
57644;BME280;43474;46.510;6.686;2024-02-23T00:18:03;95053.94;;;4.54;100.00
57644;BME280;43474;46.510;6.686;2024-02-23T00:20:29;95091.41;;;4.78;100.00
57644;BME280;43474;46.510;6.686;2024-02-23T00:22:55;95055.66;;;4.49;100.00
57644;BME280;43474;46.510;6.686;2024-02-23T00:25:21;95095.72;;;4.84;100.00
57644;BME280;43474;46.510;6.686;2024-02-23T00:27:49;95094.88;;;4.96;100.00
57644;BME280;43474;46.510;6.686;2024-02-23T00:30:14;95056.31;;;4.68;100.00
57644;BME280;43474;46.510;6.686;2024-02-23T00:32:40;95047.41;;;4.69;100.00
57644;BME280;43474;46.510;6.686;2024-02-23T00:35:06;95051.56;;;4.81;100.00
57644;BME280;43474;46.510;6.686;2024-02-23T00:37:32;95014.69;;;4.59;100.00
57644;BME280;43474;46.510;6.686;2024-02-23T00:40:07;95042.44;;;4.84;100.00
57644;BME280;43474;46.510;6.686;2024-02-23T00:42:33;95067.50;;;4.91;100.00
57644;BME280;43474;46.510;6.686;2024-02-23T00:44:59;95067.59;;;4.97;100.00
57644;BME280;43474;46.510;6.686;2024-02-23T00:47:26;95068.81;;;5.06;100.00
57644;BME280;43474;46.510;6.686;2024-02-23T00:49:52;95055.28;;;4.97;100.00
57644;BME280;43474;46.510;6.686;2024-02-23T00:52:18;95019.88;;;4.71;100.00
57644;BME280;43474;46.510;6.686;2024-02-23T00:54:44;95022.59;;;4.76;100.00
57644;BME280;43474;46.510;6.686;2024-02-23T00:57:10;95023.03;;;4.85;100.00
57644;BME280;43474;46.510;6.686;2024-02-23T00:59:36;95025.66;;;4.85;100.00
57644;BME280;43474;46.510;6.686;2024-02-23T01:02:02;95062.97;;;5.15;100.00
57644;BME280;43474;46.510;6.686;2024-02-23T01:04:28;95012.63;;;4.90;100.00
57644;BME280;43474;46.510;6.686;2024-02-23T01:06:54;95001.66;;;4.93;100.00
57644;BME280;43474;46.510;6.686;2024-02-23T01:09:20;95010.56;;;4.92;100.00
57644;BME280;43474;46.510;6.686;2024-02-23T01:11:47;95073.28;;;5.34;100.00
57644;BME280;43474;46.510;6.686;2024-02-23T01:14:13;95008.31;;;4.84;100.00
57644;BME280;43474;46.510;6.686;2024-02-23T01:16:39;95037.28;;;5.17;100.00
57644;BME280;43474;46.510;6.686;2024-02-23T01:19:05;95043.19;;;4.96;100.00
57644;BME280;43474;46.510;6.686;2024-02-23T01:21:31;95046.91;;;4.83;100.00
57644;BME280;43474;46.510;6.686;2024-02-23T01:23:57;95025.00;;;4.49;100.00
57644;BME280;43474;46.510;6.686;2024-02-23T01:26:23;95022.50;;;4.43;100.00
57644;BME280;43474;46.510;6.686;2024-02-23T01:28:49;95087.91;;;4.61;100.00
57644;BME280;43474;46.510;6.686;2024-02-23T01:31:16;95068.44;;;4.45;100.00
57644;BME280;43474;46.510;6.686;2024-02-23T01:33:42;95054.31;;;4.34;100.00
57644;BME280;43474;46.510;6.686;2024-02-23T01:36:08;95046.81;;;4.26;100.00
57644;BME280;43474;46.510;6.686;2024-02-23T01:38:34;95048.75;;;4.31;100.00
57644;BME280;43474;46.510;6.686;2024-02-23T01:41:00;95034.84;;;4.07;100.00
57644;BME280;43474;46.510;6.686;2024-02-23T01:43:26;95045.91;;;4.21;100.00
57644;BME280;43474;46.510;6.686;2024-02-23T01:45:52;95054.56;;;4.21;100.00
57644;BME280;43474;46.510;6.686;2024-02-23T01:48:20;95051.41;;;3.96;100.00
57644;BME280;43474;46.510;6.686;2024-02-23T01:50:46;95038.06;;;3.97;100.00
57644;BME280;43474;46.510;6.686;2024-02-23T01:53:12;95012.22;;;3.89;100.00
57644;BME280;43474;46.510;6.686;2024-02-23T01:55:42;95009.47;;;3.96;100.00
57644;BME280;43474;46.510;6.686;2024-02-23T01:58:08;95001.63;;;3.84;100.00
57644;BME280;43474;46.510;6.686;2024-02-23T02:00:35;95033.84;;;4.08;100.00
57644;BME280;43474;46.510;6.686;2024-02-23T02:03:04;95019.28;;;3.88;100.00
57644;BME280;43474;46.510;6.686;2024-02-23T02:05:30;95006.50;;;3.92;100.00
57644;BME280;43474;46.510;6.686;2024-02-23T02:07:56;95001.03;;;4.05;100.00
57644;BME280;43474;46.510;6.686;2024-02-23T02:10:26;94995.66;;;4.00;100.00
57644;BME280;43474;46.510;6.686;2024-02-23T02:12:52;94995.31;;;4.08;100.00
57644;BME280;43474;46.510;6.686;2024-02-23T02:15:18;94971.97;;;3.95;100.00
57644;BME280;43474;46.510;6.686;2024-02-23T02:17:46;94982.66;;;4.05;100.00
57644;BME280;43474;46.510;6.686;2024-02-23T02:20:13;94973.66;;;4.01;100.00
57644;BME280;43474;46.510;6.686;2024-02-23T02:22:39;94950.19;;;4.06;100.00
57644;BME280;43474;46.510;6.686;2024-02-23T02:25:06;94962.25;;;4.19;100.00
57644;BME280;43474;46.510;6.686;2024-02-23T02:27:33;94977.34;;;4.40;100.00
57644;BME280;43474;46.510;6.686;2024-02-23T02:29:59;94964.56;;;4.44;100.00
57644;BME280;43474;46.510;6.686;2024-02-23T02:32:25;94936.69;;;4.26;100.00
57644;BME280;43474;46.510;6.686;2024-02-23T02:34:51;94959.41;;;4.49;100.00
57644;BME280;43474;46.510;6.686;2024-02-23T02:37:17;94995.22;;;4.72;100.00
57644;BME280;43474;46.510;6.686;2024-02-23T02:39:43;94997.41;;;4.75;100.00
57644;BME280;43474;46.510;6.686;2024-02-23T02:42:09;94963.75;;;4.72;100.00
57644;BME280;43474;46.510;6.686;2024-02-23T02:44:35;94966.66;;;4.87;100.00
57644;BME280;43474;46.510;6.686;2024-02-23T02:47:01;94966.25;;;4.96;100.00
57644;BME280;43474;46.510;6.686;2024-02-23T02:49:28;94919.88;;;4.68;100.00
57644;BME280;43474;46.510;6.686;2024-02-23T02:51:54;94954.19;;;4.95;100.00
57644;BME280;43474;46.510;6.686;2024-02-23T02:54:20;94942.38;;;4.97;100.00
57644;BME280;43474;46.510;6.686;2024-02-23T02:56:47;94902.22;;;4.80;100.00
57644;BME280;43474;46.510;6.686;2024-02-23T02:59:14;94934.69;;;4.90;100.00
57644;BME280;43474;46.510;6.686;2024-02-23T03:01:40;94932.53;;;4.87;100.00
57644;BME280;43474;46.510;6.686;2024-02-23T03:04:08;94909.38;;;4.68;100.00
57644;BME280;43474;46.510;6.686;2024-02-23T03:06:34;94954.97;;;5.12;100.00
57644;BME280;43474;46.510;6.686;2024-02-23T03:09:00;94914.38;;;4.86;100.00
57644;BME280;43474;46.510;6.686;2024-02-23T03:11:26;94939.56;;;4.99;100.00
57644;BME280;43474;46.510;6.686;2024-02-23T03:13:53;94878.59;;;4.63;100.00
57644;BME280;43474;46.510;6.686;2024-02-23T03:16:20;94917.25;;;4.84;100.00
57644;BME280;43474;46.510;6.686;2024-02-23T03:18:46;94929.50;;;4.79;100.00
57644;BME280;43474;46.510;6.686;2024-02-23T03:21:12;94910.78;;;4.58;100.00
57644;BME280;43474;46.510;6.686;2024-02-23T03:23:41;94893.34;;;4.52;100.00
57644;BME280;43474;46.510;6.686;2024-02-23T03:26:07;94903.34;;;4.38;100.00
57644;BME280;43474;46.510;6.686;2024-02-23T03:28:34;94937.59;;;4.77;100.00
57644;BME280;43474;46.510;6.686;2024-02-23T03:31:00;94914.06;;;4.37;100.00
57644;BME280;43474;46.510;6.686;2024-02-23T03:33:27;94894.78;;;4.43;100.00
57644;BME280;43474;46.510;6.686;2024-02-23T03:35:53;94910.38;;;4.50;100.00
57644;BME280;43474;46.510;6.686;2024-02-23T03:38:19;94886.75;;;4.33;100.00
57644;BME280;43474;46.510;6.686;2024-02-23T03:40:45;94920.56;;;4.63;100.00
57644;BME280;43474;46.510;6.686;2024-02-23T03:43:11;94922.16;;;4.64;100.00
57644;BME280;43474;46.510;6.686;2024-02-23T03:45:37;94919.56;;;4.52;100.00
57644;BME280;43474;46.510;6.686;2024-02-23T03:48:06;94902.25;;;4.51;100.00
57644;BME280;43474;46.510;6.686;2024-02-23T03:50:32;94906.97;;;4.37;100.00
57644;BME280;43474;46.510;6.686;2024-02-23T03:52:58;94913.25;;;4.36;100.00
57644;BME280;43474;46.510;6.686;2024-02-23T03:55:24;94870.81;;;3.94;100.00
57644;BME280;43474;46.510;6.686;2024-02-23T03:57:50;94870.00;;;3.94;100.00
57644;BME280;43474;46.510;6.686;2024-02-23T04:00:17;94873.28;;;4.01;100.00
57644;BME280;43474;46.510;6.686;2024-02-23T04:02:45;94834.03;;;3.77;100.00
57644;BME280;43474;46.510;6.686;2024-02-23T04:05:11;94906.31;;;4.13;100.00
57644;BME280;43474;46.510;6.686;2024-02-23T04:07:37;94884.34;;;4.03;100.00
57644;BME280;43474;46.510;6.686;2024-02-23T04:10:03;94895.47;;;4.10;100.00
57644;BME280;43474;46.510;6.686;2024-02-23T04:12:30;94913.47;;;4.18;100.00
57644;BME280;43474;46.510;6.686;2024-02-23T04:14:56;94866.69;;;3.98;100.00
57644;BME280;43474;46.510;6.686;2024-02-23T04:17:25;94909.94;;;4.12;100.00
57644;BME280;43474;46.510;6.686;2024-02-23T04:19:51;94883.31;;;3.92;100.00
57644;BME280;43474;46.510;6.686;2024-02-23T04:22:17;94872.00;;;3.75;100.00
57644;BME280;43474;46.510;6.686;2024-02-23T04:24:42;94880.66;;;3.75;100.00
57644;BME280;43474;46.510;6.686;2024-02-23T04:27:09;94844.72;;;3.35;100.00
57644;BME280;43474;46.510;6.686;2024-02-23T04:29:35;94858.63;;;3.36;100.00
57644;BME280;43474;46.510;6.686;2024-02-23T04:32:02;94877.84;;;3.42;100.00
57644;BME280;43474;46.510;6.686;2024-02-23T04:34:28;94868.88;;;3.26;100.00
57644;BME280;43474;46.510;6.686;2024-02-23T04:36:55;94894.50;;;3.24;100.00
57644;BME280;43474;46.510;6.686;2024-02-23T04:39:21;94849.56;;;3.03;100.00
57644;BME280;43474;46.510;6.686;2024-02-23T04:41:47;94901.53;;;3.35;100.00
57644;BME280;43474;46.510;6.686;2024-02-23T04:44:13;94875.72;;;3.15;100.00
57644;BME280;43474;46.510;6.686;2024-02-23T04:46:39;94874.13;;;3.14;100.00
57644;BME280;43474;46.510;6.686;2024-02-23T04:49:05;94836.22;;;2.93;100.00
57644;BME280;43474;46.510;6.686;2024-02-23T04:51:31;94864.44;;;3.03;100.00
57644;BME280;43474;46.510;6.686;2024-02-23T04:53:57;94837.94;;;2.99;100.00
57644;BME280;43474;46.510;6.686;2024-02-23T04:56:23;94851.13;;;3.04;100.00
57644;BME280;43474;46.510;6.686;2024-02-23T04:58:54;94878.00;;;3.23;100.00
57644;BME280;43474;46.510;6.686;2024-02-23T05:01:25;94842.59;;;2.85;100.00
57644;BME280;43474;46.510;6.686;2024-02-23T05:03:51;94857.38;;;2.92;100.00
57644;BME280;43474;46.510;6.686;2024-02-23T05:06:17;94840.09;;;2.79;100.00
57644;BME280;43474;46.510;6.686;2024-02-23T05:08:43;94869.19;;;2.82;100.00
57644;BME280;43474;46.510;6.686;2024-02-23T05:11:09;94858.06;;;2.75;100.00
57644;BME280;43474;46.510;6.686;2024-02-23T05:13:35;94857.16;;;2.70;100.00
57644;BME280;43474;46.510;6.686;2024-02-23T05:16:02;94844.50;;;2.67;100.00
57644;BME280;43474;46.510;6.686;2024-02-23T05:18:28;94836.31;;;2.51;100.00
57644;BME280;43474;46.510;6.686;2024-02-23T05:20:53;94854.16;;;2.66;100.00
57644;BME280;43474;46.510;6.686;2024-02-23T05:23:19;94833.38;;;2.59;100.00
57644;BME280;43474;46.510;6.686;2024-02-23T05:25:45;94832.56;;;2.59;100.00
57644;BME280;43474;46.510;6.686;2024-02-23T05:28:11;94843.47;;;2.68;100.00
57644;BME280;43474;46.510;6.686;2024-02-23T05:30:37;94832.88;;;2.51;100.00
57644;BME280;43474;46.510;6.686;2024-02-23T05:33:03;94824.81;;;2.41;100.00
57644;BME280;43474;46.510;6.686;2024-02-23T05:35:29;94842.31;;;2.40;100.00
57644;BME280;43474;46.510;6.686;2024-02-23T05:37:55;94831.59;;;2.30;100.00
57644;BME280;43474;46.510;6.686;2024-02-23T05:40:21;94810.06;;;2.04;100.00
57644;BME280;43474;46.510;6.686;2024-02-23T05:42:47;94802.44;;;2.03;100.00
57644;BME280;43474;46.510;6.686;2024-02-23T05:45:13;94821.88;;;2.07;100.00
57644;BME280;43474;46.510;6.686;2024-02-23T05:47:39;94841.13;;;2.24;100.00
57644;BME280;43474;46.510;6.686;2024-02-23T05:50:05;94812.44;;;2.06;100.00
57644;BME280;43474;46.510;6.686;2024-02-23T05:52:31;94790.69;;;1.94;100.00
57644;BME280;43474;46.510;6.686;2024-02-23T05:54:58;94808.31;;;1.98;100.00
57644;BME280;43474;46.510;6.686;2024-02-23T05:57:28;94824.94;;;2.04;100.00
57644;BME280;43474;46.510;6.686;2024-02-23T05:59:55;94837.56;;;2.19;100.00
57644;BME280;43474;46.510;6.686;2024-02-23T06:02:24;94796.75;;;1.94;100.00
57644;BME280;43474;46.510;6.686;2024-02-23T06:04:50;94809.41;;;2.09;100.00
57644;BME280;43474;46.510;6.686;2024-02-23T06:07:16;94838.53;;;2.36;100.00
57644;BME280;43474;46.510;6.686;2024-02-23T06:09:42;94839.34;;;2.37;100.00
57644;BME280;43474;46.510;6.686;2024-02-23T06:12:08;94850.28;;;2.57;100.00
57644;BME280;43474;46.510;6.686;2024-02-23T06:14:35;94844.94;;;2.52;100.00
57644;BME280;43474;46.510;6.686;2024-02-23T06:17:01;94838.09;;;2.39;100.00
57644;BME280;43474;46.510;6.686;2024-02-23T06:19:26;94843.41;;;2.32;100.00
57644;BME280;43474;46.510;6.686;2024-02-23T06:21:52;94846.13;;;2.26;100.00
57644;BME280;43474;46.510;6.686;2024-02-23T06:24:18;94829.16;;;2.05;100.00
57644;BME280;43474;46.510;6.686;2024-02-23T06:26:45;94839.63;;;2.17;100.00
57644;BME280;43474;46.510;6.686;2024-02-23T06:29:13;94843.53;;;2.26;100.00
57644;BME280;43474;46.510;6.686;2024-02-23T06:31:40;94824.34;;;2.02;100.00
57644;BME280;43474;46.510;6.686;2024-02-23T06:34:08;94824.75;;;2.17;100.00
57644;BME280;43474;46.510;6.686;2024-02-23T06:36:33;94883.91;;;2.53;100.00
57644;BME280;43474;46.510;6.686;2024-02-23T06:39:00;94818.63;;;2.23;100.00
57644;BME280;43474;46.510;6.686;2024-02-23T06:41:25;94816.03;;;2.35;100.00
57644;BME280;43474;46.510;6.686;2024-02-23T06:43:52;94816.25;;;2.33;100.00
57644;BME280;43474;46.510;6.686;2024-02-23T06:46:21;94838.69;;;2.53;100.00
57644;BME280;43474;46.510;6.686;2024-02-23T06:48:47;94844.97;;;2.64;100.00
57644;BME280;43474;46.510;6.686;2024-02-23T06:51:13;94872.47;;;2.78;100.00
57644;BME280;43474;46.510;6.686;2024-02-23T06:53:39;94837.56;;;2.61;100.00
57644;BME280;43474;46.510;6.686;2024-02-23T06:56:05;94836.06;;;2.53;100.00
57644;BME280;43474;46.510;6.686;2024-02-23T06:58:31;94817.94;;;2.28;100.00
57644;BME280;43474;46.510;6.686;2024-02-23T07:00:57;94824.38;;;2.14;100.00
57644;BME280;43474;46.510;6.686;2024-02-23T07:03:23;94836.97;;;2.05;100.00
57644;BME280;43474;46.510;6.686;2024-02-23T07:05:49;94840.81;;;2.02;100.00
57644;BME280;43474;46.510;6.686;2024-02-23T07:08:16;94858.03;;;2.22;100.00
57644;BME280;43474;46.510;6.686;2024-02-23T07:10:41;94823.78;;;2.00;100.00
57644;BME280;43474;46.510;6.686;2024-02-23T07:13:08;94854.28;;;2.18;100.00
57644;BME280;43474;46.510;6.686;2024-02-23T07:15:34;94882.75;;;2.38;100.00
57644;BME280;43474;46.510;6.686;2024-02-23T07:18:01;94867.34;;;2.18;100.00
57644;BME280;43474;46.510;6.686;2024-02-23T07:20:27;94882.41;;;2.34;100.00
57644;BME280;43474;46.510;6.686;2024-02-23T07:22:53;94855.91;;;2.30;100.00
57644;BME280;43474;46.510;6.686;2024-02-23T07:25:20;94873.25;;;2.55;100.00
57644;BME280;43474;46.510;6.686;2024-02-23T07:27:47;94829.72;;;2.49;100.00
57644;BME280;43474;46.510;6.686;2024-02-23T07:30:16;94838.84;;;2.70;100.00
57644;BME280;43474;46.510;6.686;2024-02-23T07:32:43;94861.50;;;2.99;100.00
57644;BME280;43474;46.510;6.686;2024-02-23T07:35:10;94840.75;;;2.98;100.00
57644;BME280;43474;46.510;6.686;2024-02-23T07:37:37;94845.34;;;3.14;100.00
57644;BME280;43474;46.510;6.686;2024-02-23T07:40:03;94856.56;;;3.26;100.00
57644;BME280;43474;46.510;6.686;2024-02-23T07:42:31;94878.84;;;3.52;100.00
57644;BME280;43474;46.510;6.686;2024-02-23T07:44:57;94850.41;;;3.32;100.00
57644;BME280;43474;46.510;6.686;2024-02-23T07:47:24;94835.50;;;3.45;100.00
57644;BME280;43474;46.510;6.686;2024-02-23T07:49:50;94894.16;;;3.96;100.00
57644;BME280;43474;46.510;6.686;2024-02-23T07:52:17;94873.63;;;4.04;100.00
57644;BME280;43474;46.510;6.686;2024-02-23T07:54:46;94889.38;;;4.50;100.00
57644;BME280;43474;46.510;6.686;2024-02-23T07:57:25;94878.47;;;5.03;100.00
57644;BME280;43474;46.510;6.686;2024-02-23T07:59:54;94849.94;;;5.29;100.00
57644;BME280;43474;46.510;6.686;2024-02-23T08:02:20;94874.06;;;5.64;100.00
57644;BME280;43474;46.510;6.686;2024-02-23T08:04:46;94864.22;;;5.77;100.00
57644;BME280;43474;46.510;6.686;2024-02-23T08:07:20;94915.31;;;5.64;100.00
57644;BME280;43474;46.510;6.686;2024-02-23T08:09:59;94848.09;;;6.12;100.00
57644;BME280;43474;46.510;6.686;2024-02-23T08:12:26;94894.34;;;6.57;100.00
57644;BME280;43474;46.510;6.686;2024-02-23T08:18:05;94900.13;;;7.60;100.00
57644;BME280;43474;46.510;6.686;2024-02-23T08:24:09;94883.84;;;8.31;100.00
57644;BME280;43474;46.510;6.686;2024-02-23T08:27:01;94847.63;;;8.11;100.00
57644;BME280;43474;46.510;6.686;2024-02-23T08:30:10;94905.91;;;9.18;100.00
57644;BME280;43474;46.510;6.686;2024-02-23T08:32:58;94873.59;;;9.72;100.00
57644;BME280;43474;46.510;6.686;2024-02-23T08:35:43;94853.25;;;9.63;100.00
57644;BME280;43474;46.510;6.686;2024-02-23T08:38:18;94855.16;;;9.37;100.00
57644;BME280;43474;46.510;6.686;2024-02-23T08:40:59;94820.56;;;8.87;100.00
57644;BME280;43474;46.510;6.686;2024-02-23T08:43:49;94832.44;;;9.15;100.00
57644;BME280;43474;46.510;6.686;2024-02-23T08:47:15;94884.50;;;9.30;100.00
57644;BME280;43474;46.510;6.686;2024-02-23T08:50:23;94873.38;;;9.43;100.00
57644;BME280;43474;46.510;6.686;2024-02-23T08:53:27;94850.63;;;9.52;100.00
57644;BME280;43474;46.510;6.686;2024-02-23T08:56:43;94834.91;;;9.92;100.00
57644;BME280;43474;46.510;6.686;2024-02-23T08:59:52;94858.09;;;10.15;100.00
57644;BME280;43474;46.510;6.686;2024-02-23T09:02:50;94821.84;;;10.10;100.00
57644;BME280;43474;46.510;6.686;2024-02-23T09:05:52;94864.66;;;10.23;100.00
57644;BME280;43474;46.510;6.686;2024-02-23T09:13:30;94863.28;;;11.19;100.00
57644;BME280;43474;46.510;6.686;2024-02-23T09:16:20;94839.66;;;10.88;100.00
57644;BME280;43474;46.510;6.686;2024-02-23T09:19:15;94840.56;;;10.34;99.69
57644;BME280;43474;46.510;6.686;2024-02-23T09:22:24;94861.50;;;10.26;100.00
57644;BME280;43474;46.510;6.686;2024-02-23T09:24:56;94845.44;;;10.02;98.59
57644;BME280;43474;46.510;6.686;2024-02-23T09:27:24;94810.28;;;9.96;100.00
57644;BME280;43474;46.510;6.686;2024-02-23T09:29:55;94812.38;;;10.49;99.36
57644;BME280;43474;46.510;6.686;2024-02-23T09:32:48;94815.66;;;10.75;95.97
57644;BME280;43474;46.510;6.686;2024-02-23T09:36:20;94820.53;;;10.57;91.21
57644;BME280;43474;46.510;6.686;2024-02-23T09:39:01;94828.97;;;10.65;94.58
57644;BME280;43474;46.510;6.686;2024-02-23T09:42:29;94822.88;;;10.64;92.43
57644;BME280;43474;46.510;6.686;2024-02-23T09:45:28;94817.19;;;10.42;97.66
57644;BME280;43474;46.510;6.686;2024-02-23T09:48:34;94797.78;;;10.91;94.76
57644;BME280;43474;46.510;6.686;2024-02-23T09:51:42;94822.38;;;11.25;93.28
57644;BME280;43474;46.510;6.686;2024-02-23T10:12:56;94790.91;;;11.43;92.95
57644;BME280;43474;46.510;6.686;2024-02-23T10:15:29;94761.84;;;11.32;87.22
57644;BME280;43474;46.510;6.686;2024-02-23T10:28:27;94789.22;;;11.76;91.21
57644;BME280;43474;46.510;6.686;2024-02-23T10:30:57;94775.03;;;10.84;81.23
57644;BME280;43474;46.510;6.686;2024-02-23T10:33:44;94799.66;;;11.19;84.26
57644;BME280;43474;46.510;6.686;2024-02-23T10:36:32;94767.69;;;11.05;89.65
57644;BME280;43474;46.510;6.686;2024-02-23T10:39:17;94782.91;;;11.48;90.77
57644;BME280;43474;46.510;6.686;2024-02-23T10:42:02;94798.22;;;11.27;87.41
57644;BME280;43474;46.510;6.686;2024-02-23T10:45:03;94829.59;;;11.73;86.22
57644;BME280;43474;46.510;6.686;2024-02-23T10:47:35;94789.41;;;11.07;86.09
57644;BME280;43474;46.510;6.686;2024-02-23T10:50:06;94773.19;;;10.85;90.90
57644;BME280;43474;46.510;6.686;2024-02-23T11:08:01;94755.16;;;11.40;84.49
57644;BME280;43474;46.510;6.686;2024-02-23T11:15:07;94768.50;;;12.02;79.31
57644;BME280;43474;46.510;6.686;2024-02-23T11:18:47;94737.72;;;12.20;71.11
57644;BME280;43474;46.510;6.686;2024-02-23T11:21:53;94741.22;;;12.34;80.69
57644;BME280;43474;46.510;6.686;2024-02-23T11:24:42;94745.69;;;11.77;74.04
57644;BME280;43474;46.510;6.686;2024-02-23T11:27:14;94735.31;;;12.37;77.44
57644;BME280;43474;46.510;6.686;2024-02-23T11:36:10;94731.19;;;12.12;76.00
57644;BME280;43474;46.510;6.686;2024-02-23T11:39:01;94725.03;;;11.74;77.59
57644;BME280;43474;46.510;6.686;2024-02-23T11:42:07;94771.91;;;11.83;73.48
57644;BME280;43474;46.510;6.686;2024-02-23T11:45:22;94732.66;;;12.37;77.86
57644;BME280;43474;46.510;6.686;2024-02-23T11:59:15;94713.13;;;12.79;69.56
57644;BME280;43474;46.510;6.686;2024-02-23T12:02:04;94700.09;;;12.64;65.46
57644;BME280;43474;46.510;6.686;2024-02-23T12:04:41;94717.19;;;13.23;73.82
57644;BME280;43474;46.510;6.686;2024-02-23T12:07:24;94718.31;;;13.17;69.97
57644;BME280;43474;46.510;6.686;2024-02-23T12:10:04;94752.63;;;12.86;70.43
57644;BME280;43474;46.510;6.686;2024-02-23T12:33:35;94661.38;;;12.90;71.44
57644;BME280;43474;46.510;6.686;2024-02-23T12:36:54;94673.09;;;12.89;62.43
57644;BME280;43474;46.510;6.686;2024-02-23T12:40:34;94701.47;;;12.29;56.34
57644;BME280;43474;46.510;6.686;2024-02-23T12:43:40;94692.34;;;12.81;62.66
57644;BME280;43474;46.510;6.686;2024-02-23T12:47:07;94713.72;;;12.76;64.79
57644;BME280;43474;46.510;6.686;2024-02-23T12:54:31;94705.78;;;11.44;71.45
57644;BME280;43474;46.510;6.686;2024-02-23T12:58:03;94710.50;;;10.99;69.90
57644;BME280;43474;46.510;6.686;2024-02-23T13:13:12;94690.78;;;11.53;72.62
57644;BME280;43474;46.510;6.686;2024-02-23T13:17:07;94657.56;;;11.37;68.94
57644;BME280;43474;46.510;6.686;2024-02-23T13:20:54;94636.72;;;11.68;68.27
57644;BME280;43474;46.510;6.686;2024-02-23T13:25:01;94669.00;;;11.56;63.83
57644;BME280;43474;46.510;6.686;2024-02-23T13:35:29;94624.31;;;10.20;70.19
57644;BME280;43474;46.510;6.686;2024-02-23T13:47:23;94637.69;;;9.65;86.21
57644;BME280;43474;46.510;6.686;2024-02-23T13:49:49;94631.44;;;9.90;82.78
57644;BME280;43474;46.510;6.686;2024-02-23T13:52:15;94638.91;;;9.78;80.81
57644;BME280;43474;46.510;6.686;2024-02-23T13:54:41;94647.16;;;10.10;79.89
57644;BME280;43474;46.510;6.686;2024-02-23T13:57:07;94654.22;;;10.25;82.35
57644;BME280;43474;46.510;6.686;2024-02-23T13:59:32;94632.44;;;9.94;82.50
57644;BME280;43474;46.510;6.686;2024-02-23T14:01:58;94654.53;;;9.74;82.35
57644;BME280;43474;46.510;6.686;2024-02-23T14:04:24;94643.84;;;9.55;81.39
57644;BME280;43474;46.510;6.686;2024-02-23T14:06:49;94635.09;;;9.94;83.67
57644;BME280;43474;46.510;6.686;2024-02-23T14:09:15;94661.09;;;10.21;83.84
57644;BME280;43474;46.510;6.686;2024-02-23T14:11:41;94640.16;;;9.91;84.92
57644;BME280;43474;46.510;6.686;2024-02-23T14:14:07;94651.09;;;10.13;82.72
57644;BME280;43474;46.510;6.686;2024-02-23T14:16:33;94650.63;;;10.06;83.02
57644;BME280;43474;46.510;6.686;2024-02-23T14:18:59;94623.75;;;9.89;82.67
57644;BME280;43474;46.510;6.686;2024-02-23T14:21:25;94651.53;;;9.47;85.08
57644;BME280;43474;46.510;6.686;2024-02-23T14:23:51;94647.63;;;9.78;86.88
57644;BME280;43474;46.510;6.686;2024-02-23T14:26:17;94620.59;;;9.47;87.90
57644;BME280;43474;46.510;6.686;2024-02-23T14:28:42;94616.22;;;9.72;87.69
57644;BME280;43474;46.510;6.686;2024-02-23T14:31:08;94607.56;;;9.61;84.96
57644;BME280;43474;46.510;6.686;2024-02-23T14:33:34;94626.28;;;9.70;83.96
57644;BME280;43474;46.510;6.686;2024-02-23T14:36:00;94641.56;;;9.78;86.90
57644;BME280;43474;46.510;6.686;2024-02-23T14:38:26;94636.63;;;9.66;85.78
57644;BME280;43474;46.510;6.686;2024-02-23T14:40:51;94619.91;;;9.31;84.77
57644;BME280;43474;46.510;6.686;2024-02-23T14:43:18;94607.78;;;9.25;86.25
57644;BME280;43474;46.510;6.686;2024-02-23T14:45:44;94621.28;;;9.63;88.03
57644;BME280;43474;46.510;6.686;2024-02-23T14:48:10;94613.38;;;9.58;85.74
57644;BME280;43474;46.510;6.686;2024-02-23T14:50:36;94609.19;;;9.52;80.18
57644;BME280;43474;46.510;6.686;2024-02-23T14:53:03;94604.66;;;9.57;81.50
57644;BME280;43474;46.510;6.686;2024-02-23T14:55:29;94599.22;;;9.39;82.12
57644;BME280;43474;46.510;6.686;2024-02-23T14:57:56;94611.47;;;9.24;78.68
57644;BME280;43474;46.510;6.686;2024-02-23T15:00:23;94598.72;;;9.37;80.59
57644;BME280;43474;46.510;6.686;2024-02-23T15:02:54;94632.19;;;9.56;78.24
57644;BME280;43474;46.510;6.686;2024-02-23T15:05:20;94602.91;;;9.43;78.82
57644;BME280;43474;46.510;6.686;2024-02-23T15:07:55;94604.47;;;9.44;76.45
57644;BME280;43474;46.510;6.686;2024-02-23T15:10:21;94606.97;;;9.30;76.67
57644;BME280;43474;46.510;6.686;2024-02-23T15:12:48;94604.16;;;9.06;79.13
57644;BME280;43474;46.510;6.686;2024-02-23T15:15:14;94601.97;;;9.18;77.96
57644;BME280;43474;46.510;6.686;2024-02-23T15:17:46;94618.19;;;9.01;80.41
57644;BME280;43474;46.510;6.686;2024-02-23T15:20:14;94600.63;;;8.66;76.60
57644;BME280;43474;46.510;6.686;2024-02-23T15:22:44;94605.03;;;8.86;82.86
57644;BME280;43474;46.510;6.686;2024-02-23T15:25:12;94590.31;;;8.60;78.53
57644;BME280;43474;46.510;6.686;2024-02-23T15:27:38;94585.03;;;8.54;78.54
57644;BME280;43474;46.510;6.686;2024-02-23T15:30:05;94587.41;;;8.71;80.31
57644;BME280;43474;46.510;6.686;2024-02-23T15:32:39;94585.84;;;8.50;80.35
57644;BME280;43474;46.510;6.686;2024-02-23T15:35:11;94583.19;;;8.70;81.77
57644;BME280;43474;46.510;6.686;2024-02-23T15:37:51;94617.25;;;9.76;83.90
57644;BME280;43474;46.510;6.686;2024-02-23T15:40:26;94596.19;;;10.00;80.92
57644;BME280;43474;46.510;6.686;2024-02-23T15:42:52;94583.28;;;9.88;77.01
57644;BME280;43474;46.510;6.686;2024-02-23T15:45:35;94588.47;;;9.64;78.96